Time;durP1;ratioP1;P1;durP2;ratioP2;P2;SDS_P1;SDS_P2;PMS_P1;PMS_P2;Temp;Humidity;BMP_temperature;BMP_pressure;BME280_temperature;BME280_humidity;BME280_pressure;Samples;Min_cycle;Max_cycle;Signal;HPM_P1;HPM_P2
2023/09/08 00:00:53;;;;;;;29.23;9.33;;;30.10;55.70;;;;;;5037448;28;20286;-72
2023/09/08 00:03:21;;;;;;;28.40;8.17;;;30.00;55.60;;;;;;5047370;28;20272;-71
2023/09/08 00:05:48;;;;;;;29.73;8.67;;;30.10;55.70;;;;;;5038414;28;20228;-71
2023/09/08 00:08:15;;;;;;;24.67;8.13;;;30.00;55.70;;;;;;5048406;28;20286;-72
2023/09/08 00:10:42;;;;;;;31.53;9.23;;;30.00;55.70;;;;;;5047329;28;20203;-72
2023/09/08 00:13:09;;;;;;;33.57;9.63;;;30.00;55.70;;;;;;5049801;28;20200;-72
2023/09/08 00:15:36;;;;;;;31.33;9.33;;;30.00;55.70;;;;;;5049646;28;20690;-72
2023/09/08 00:18:03;;;;;;;33.43;9.33;;;30.00;55.70;;;;;;5050217;28;20204;-72
2023/09/08 00:20:32;;;;;;;31.73;8.67;;;30.00;55.70;;;;;;5045407;28;20291;-72
2023/09/08 00:22:58;;;;;;;28.00;8.60;;;30.00;55.70;;;;;;5040881;28;20587;-72
2023/09/08 00:25:25;;;;;;;26.03;8.67;;;29.90;55.70;;;;;;5048411;28;20599;-73
2023/09/08 00:27:52;;;;;;;30.03;8.80;;;29.90;56.30;;;;;;5030872;28;20203;-72
2023/09/08 00:30:19;;;;;;;32.07;8.97;;;29.90;55.70;;;;;;5034083;28;20204;-72
2023/09/08 00:32:46;;;;;;;28.60;8.30;;;29.90;55.70;;;;;;5049752;28;20207;-73
2023/09/08 00:35:14;;;;;;;25.33;8.63;;;29.90;55.70;;;;;;5049570;28;20302;-72
2023/09/08 00:37:42;;;;;;;32.10;8.53;;;29.90;55.70;;;;;;5043675;28;20573;-72
2023/09/08 00:40:10;;;;;;;31.50;8.97;;;29.90;55.80;;;;;;5041232;28;20192;-73
2023/09/08 00:42:37;;;;;;;46.27;10.13;;;29.90;55.70;;;;;;5046209;28;20216;-72
2023/09/08 00:45:05;;;;;;;23.07;7.93;;;29.80;55.70;;;;;;5040555;28;20339;-72
2023/09/08 00:47:32;;;;;;;26.87;8.17;;;29.90;55.80;;;;;;5049118;28;20630;-72
2023/09/08 00:49:59;;;;;;;25.70;8.13;;;29.80;55.70;;;;;;5048916;28;20294;-72
2023/09/08 00:52:31;;;;;;;26.93;8.20;;;29.80;55.70;;;;;;5046694;28;20200;-71
2023/09/08 00:55:00;;;;;;;32.90;8.97;;;29.80;55.70;;;;;;5043333;28;20196;-72
2023/09/08 00:57:27;;;;;;;26.43;8.73;;;29.80;55.70;;;;;;5047526;28;20207;-71
2023/09/08 00:59:54;;;;;;;30.50;9.00;;;29.80;55.70;;;;;;5049432;28;20265;-72
2023/09/08 01:02:22;;;;;;;34.60;9.90;;;29.80;55.70;;;;;;5049079;28;20283;-72
2023/09/08 01:04:49;;;;;;;26.77;8.80;;;29.70;55.70;;;;;;5049050;28;20314;-72
2023/09/08 01:07:16;;;;;;;30.80;9.00;;;29.80;55.70;;;;;;5042245;28;20640;-72
2023/09/08 01:09:43;;;;;;;72.10;12.83;;;29.70;55.70;;;;;;5027947;28;20203;-73
2023/09/08 01:12:12;;;;;;;33.57;9.33;;;29.80;55.80;;;;;;5031765;28;20369;-72
2023/09/08 01:14:39;;;;;;;29.60;8.70;;;29.70;55.70;;;;;;5042637;28;20694;-72
2023/09/08 01:17:06;;;;;;;30.57;9.17;;;29.70;55.80;;;;;;5042293;28;20311;-72
2023/09/08 01:19:33;;;;;;;31.60;8.97;;;29.70;56.30;;;;;;5029007;28;20212;-72
2023/09/08 01:22:17;;;;;;;29.67;9.00;;;29.60;55.70;;;;;;5028469;28;20199;-74
2023/09/08 01:25:13;;;;;;;64.10;12.27;;;29.60;55.70;;;;;;5033775;28;20570;-72
2023/09/08 01:27:46;;;;;;;27.80;8.73;;;29.60;55.70;;;;;;5028523;28;20287;-72
2023/09/08 01:30:14;;;;;;;23.23;8.63;;;29.60;55.70;;;;;;5033488;28;20571;-73
2023/09/08 01:32:42;;;;;;;33.20;9.10;;;29.60;55.70;;;;;;5048221;28;20287;-72
2023/09/08 01:35:10;;;;;;;26.63;8.83;;;29.60;55.70;;;;;;5048093;28;20204;-72
2023/09/08 01:37:37;;;;;;;32.20;8.63;;;29.60;55.70;;;;;;5048312;28;20639;-73
2023/09/08 01:40:04;;;;;;;30.37;9.17;;;29.60;55.70;;;;;;5048955;28;20230;-71
2023/09/08 01:42:33;;;;;;;28.33;9.00;;;29.60;55.80;;;;;;5048386;28;20293;-72
2023/09/08 01:44:59;;;;;;;35.53;9.87;;;29.60;55.80;;;;;;5046769;28;20303;-73
2023/09/08 01:47:28;;;;;;;23.13;8.67;;;29.50;55.80;;;;;;5035318;28;20295;-74
2023/09/08 01:49:55;;;;;;;26.70;8.20;;;29.50;55.80;;;;;;5045889;28;20192;-73
2023/09/08 01:52:22;;;;;;;23.47;9.23;;;29.50;55.70;;;;;;5048600;28;20200;-73
2023/09/08 01:54:49;;;;;;;19.70;7.90;;;29.50;55.80;;;;;;5048802;28;20274;-74
2023/09/08 01:57:16;;;;;;;21.07;8.83;;;29.50;55.70;;;;;;5048332;28;20200;-75
2023/09/08 01:59:45;;;;;;;31.07;9.60;;;29.50;55.80;;;;;;5037470;28;20715;-73
2023/09/08 02:02:12;;;;;;;69.90;12.83;;;29.50;55.80;;;;;;5027691;28;20209;-75
2023/09/08 02:04:39;;;;;;;31.63;9.53;;;29.50;55.80;;;;;;5037086;28;20282;-75
2023/09/08 02:07:06;;;;;;;46.87;11.07;;;29.50;55.80;;;;;;5051077;28;20229;-75
2023/09/08 02:09:33;;;;;;;34.57;9.87;;;29.40;55.70;;;;;;5037229;28;20208;-74
2023/09/08 02:12:01;;;;;;;24.40;8.87;;;29.40;55.70;;;;;;5049527;28;20662;-75
2023/09/08 02:14:28;;;;;;;25.00;8.23;;;29.40;55.70;;;;;;5052275;28;20606;-75
2023/09/08 02:16:57;;;;;;;22.27;8.50;;;29.40;55.70;;;;;;5048007;28;20259;-74
2023/09/08 02:19:24;;;;;;;65.33;11.87;;;29.40;55.70;;;;;;5048251;28;20257;-72
2023/09/08 02:21:51;;;;;;;27.03;8.90;;;29.40;55.70;;;;;;5040863;28;20283;-71
2023/09/08 02:24:18;;;;;;;24.10;8.10;;;29.40;55.70;;;;;;5052479;28;20283;-71
2023/09/08 02:26:45;;;;;;;66.67;12.77;;;29.30;55.60;;;;;;5049645;28;20228;-72
2023/09/08 02:29:12;;;;;;;25.13;8.30;;;29.40;55.80;;;;;;5031745;28;20296;-72
2023/09/08 02:31:39;;;;;;;26.67;8.43;;;29.30;55.60;;;;;;5031921;28;20287;-71
2023/09/08 02:34:07;;;;;;;36.27;9.03;;;29.30;55.60;;;;;;5031582;28;20296;-72
2023/09/08 02:36:34;;;;;;;55.60;11.43;;;29.30;55.60;;;;;;5031694;28;20211;-72
2023/09/08 02:39:01;;;;;;;21.00;8.17;;;29.30;55.60;;;;;;5036991;28;20211;-71
2023/09/08 02:41:28;;;;;;;18.57;8.30;;;29.30;55.70;;;;;;5032437;28;20276;-71
2023/09/08 02:43:55;;;;;;;65.77;12.33;;;29.30;55.70;;;;;;5030963;28;20212;-72
2023/09/08 02:46:22;;;;;;;32.03;9.03;;;29.30;55.60;;;;;;5031950;28;20227;-71
2023/09/08 02:48:49;;;;;;;28.73;9.47;;;29.30;55.70;;;;;;5031503;28;20300;-72
2023/09/08 02:51:17;;;;;;;37.10;9.57;;;29.20;55.60;;;;;;5030625;28;20205;-72
2023/09/08 02:53:44;;;;;;;31.80;9.27;;;29.30;55.60;;;;;;5039002;28;20801;-72
2023/09/08 02:56:11;;;;;;;33.77;9.63;;;29.20;55.60;;;;;;5040375;28;20196;-72
2023/09/08 02:58:38;;;;;;;29.33;8.77;;;29.20;55.60;;;;;;5051608;28;20184;-72
2023/09/08 03:01:12;;;;;;;27.23;8.80;;;29.20;55.60;;;;;;5051490;28;20720;-72
2023/09/08 03:03:39;;;;;;;32.03;9.07;;;29.20;55.60;;;;;;5051138;28;20208;-72
2023/09/08 03:06:06;;;;;;;29.33;8.73;;;29.20;55.60;;;;;;5039527;28;20577;-71
2023/09/08 03:08:36;;;;;;;32.87;9.47;;;29.20;55.60;;;;;;5030284;28;20208;-71
2023/09/08 03:11:04;;;;;;;24.07;8.77;;;29.20;55.60;;;;;;5034287;28;20192;-72
2023/09/08 03:13:31;;;;;;;25.17;7.90;;;29.10;55.60;;;;;;5036829;28;20636;-72
2023/09/08 03:16:02;;;;;;;30.93;9.90;;;29.10;55.60;;;;;;5050440;28;20666;-71
2023/09/08 03:18:29;;;;;;;17.17;8.00;;;29.10;55.60;;;;;;5050766;28;20196;-72
2023/09/08 03:20:56;;;;;;;23.47;8.80;;;29.10;55.60;;;;;;5030499;28;20213;-72
2023/09/08 03:23:23;;;;;;;32.43;9.63;;;29.10;55.70;;;;;;5031295;28;20193;-71
2023/09/08 03:25:52;;;;;;;23.00;8.90;;;29.10;55.60;;;;;;5030902;28;20315;-72
2023/09/08 03:28:19;;;;;;;30.27;8.90;;;29.10;55.70;;;;;;5034074;28;20208;-72
2023/09/08 03:30:46;;;;;;;26.83;8.83;;;29.10;55.70;;;;;;5040301;28;20303;-72
2023/09/08 03:33:13;;;;;;;35.10;9.60;;;29.10;55.70;;;;;;5050229;28;20294;-72
2023/09/08 03:35:40;;;;;;;23.37;8.60;;;29.10;55.70;;;;;;5031745;28;20285;-72
2023/09/08 03:38:07;;;;;;;24.23;8.57;;;29.10;55.70;;;;;;5038826;28;20192;-72
2023/09/08 03:40:34;;;;;;;28.33;9.17;;;29.10;55.70;;;;;;5044046;28;20212;-72
2023/09/08 03:43:02;;;;;;;29.37;9.27;;;29.10;55.70;;;;;;5047536;28;20307;-72
2023/09/08 03:45:29;;;;;;;40.57;9.87;;;29.00;55.70;;;;;;5044168;28;20567;-72
2023/09/08 03:47:56;;;;;;;37.50;9.87;;;29.00;55.70;;;;;;5047904;28;20278;-72
2023/09/08 03:50:23;;;;;;;31.93;9.73;;;29.00;56.10;;;;;;5050361;28;20318;-72
2023/09/08 03:52:49;;;;;;;32.23;10.00;;;29.00;55.70;;;;;;5041953;28;20283;-72
2023/09/08 03:55:17;;;;;;;28.20;8.73;;;29.00;55.70;;;;;;5050740;28;20195;-72
2023/09/08 03:57:44;;;;;;;22.73;8.23;;;29.00;55.80;;;;;;5050692;28;20200;-71
2023/09/08 04:00:19;;;;;;;28.40;8.83;;;29.00;55.80;;;;;;5050467;28;20299;-71
2023/09/08 04:02:46;;;;;;;30.50;9.97;;;29.00;55.80;;;;;;5044226;28;20207;-72
2023/09/08 04:05:13;;;;;;;27.63;9.23;;;29.00;56.40;;;;;;5043020;28;20562;-72
2023/09/08 04:07:40;;;;;;;42.00;10.43;;;28.90;55.60;;;;;;5033132;28;20695;-73
2023/09/08 04:10:08;;;;;;;28.13;9.03;;;29.00;55.80;;;;;;5029833;28;20228;-72
2023/09/08 04:12:35;;;;;;;25.67;8.53;;;29.00;55.80;;;;;;5029807;28;20211;-73
2023/09/08 04:15:02;;;;;;;24.67;8.43;;;29.00;55.80;;;;;;5029989;28;20291;-75
2023/09/08 04:17:30;;;;;;;26.93;8.70;;;28.90;55.70;;;;;;5030043;28;20192;-73
2023/09/08 04:19:57;;;;;;;37.03;10.07;;;28.90;55.70;;;;;;5033146;28;20665;-75
2023/09/08 04:22:24;;;;;;;30.23;8.87;;;28.90;55.70;;;;;;5043504;28;20290;-72
2023/09/08 04:24:53;;;;;;;24.30;8.47;;;28.90;55.80;;;;;;5049900;28;20291;-75
2023/09/08 04:27:20;;;;;;;24.50;8.53;;;28.90;55.70;;;;;;5049093;28;20260;-72
2023/09/08 04:29:47;;;;;;;49.80;11.07;;;28.90;55.70;;;;;;5046683;28;20291;-73
2023/09/08 04:32:14;;;;;;;19.43;7.10;;;28.90;55.70;;;;;;5034398;28;20299;-72
2023/09/08 04:34:43;;;;;;;27.63;7.90;;;28.90;55.70;;;;;;5049210;28;20200;-73
2023/09/08 04:37:10;;;;;;;24.70;7.73;;;28.80;55.70;;;;;;5041399;28;20288;-73
2023/09/08 04:39:37;;;;;;;30.40;8.93;;;28.80;55.70;;;;;;5043981;28;20287;-75
2023/09/08 04:42:05;;;;;;;27.00;8.03;;;28.80;55.70;;;;;;5049318;28;20227;-74
2023/09/08 04:44:32;;;;;;;28.50;8.53;;;28.90;55.80;;;;;;5049432;28;20298;-73
2023/09/08 04:46:59;;;;;;;33.70;9.30;;;28.90;55.80;;;;;;5049254;28;20224;-75
2023/09/08 04:49:26;;;;;;;27.33;8.60;;;28.80;55.70;;;;;;5038520;28;20718;-72
2023/09/08 04:51:54;;;;;;;34.70;8.73;;;28.80;55.70;;;;;;5029060;28;20292;-74
2023/09/08 04:54:22;;;;;;;27.70;8.10;;;28.80;55.70;;;;;;5032414;28;20292;-72
2023/09/08 04:56:49;;;;;;;29.07;8.60;;;28.80;55.60;;;;;;5044613;28;20550;-75
2023/09/08 04:59:16;;;;;;;28.23;8.57;;;28.80;55.70;;;;;;5049231;28;20199;-74
2023/09/08 05:01:43;;;;;;;33.20;9.85;;;28.80;55.70;;;;;;5047885;28;20516;-75
2023/09/08 05:04:11;;;;;;;29.27;9.13;;;28.70;55.80;;;;;;5027694;28;20201;-75
2023/09/08 05:06:38;;;;;;;23.07;8.00;;;28.70;55.90;;;;;;5046148;28;20234;-73
2023/09/08 05:09:06;;;;;;;26.57;8.50;;;28.70;55.80;;;;;;5049278;28;20193;-72
2023/09/08 05:11:34;;;;;;;26.83;8.83;;;28.70;55.80;;;;;;5039079;28;20750;-73
2023/09/08 05:14:00;;;;;;;25.60;8.57;;;28.70;55.70;;;;;;5044693;28;20222;-72
2023/09/08 05:16:37;;;;;;;35.30;9.40;;;28.80;55.70;;;;;;5048615;28;20294;-74
2023/09/08 05:19:04;;;;;;;28.77;8.43;;;28.80;55.70;;;;;;5048778;28;20696;-72
2023/09/08 05:21:32;;;;;;;29.33;8.90;;;28.80;55.70;;;;;;5047391;28;20558;-73
2023/09/08 05:23:59;;;;;;;31.67;9.07;;;28.70;55.60;;;;;;5048690;28;20204;-73
2023/09/08 05:26:27;;;;;;;32.17;8.63;;;28.70;55.70;;;;;;5046484;28;20251;-72
2023/09/08 05:28:54;;;;;;;25.87;8.53;;;28.70;55.60;;;;;;5036856;28;20602;-72
2023/09/08 05:31:21;;;;;;;31.23;8.63;;;28.70;55.60;;;;;;5046680;28;20210;-74
2023/09/08 05:33:48;;;;;;;22.30;8.43;;;28.70;55.60;;;;;;5048635;28;20190;-73
2023/09/08 05:36:15;;;;;;;29.77;8.43;;;28.70;55.70;;;;;;5032952;28;20283;-72
2023/09/08 05:38:42;;;;;;;26.37;8.17;;;28.70;55.60;;;;;;5048213;28;20283;-73
2023/09/08 05:41:09;;;;;;;27.03;8.00;;;28.70;55.60;;;;;;5047988;28;20281;-73
2023/09/08 05:43:37;;;;;;;28.37;9.33;;;28.70;55.60;;;;;;5041564;28;20726;-72
2023/09/08 05:46:04;;;;;;;33.30;8.93;;;28.60;55.50;;;;;;5048015;28;20557;-73
2023/09/08 05:48:31;;;;;;;37.80;8.73;;;28.70;55.60;;;;;;5044701;28;20200;-72
2023/09/08 05:50:59;;;;;;;34.57;9.53;;;28.60;55.60;;;;;;5028213;28;20209;-71
2023/09/08 05:53:26;;;;;;;27.97;8.27;;;28.60;55.60;;;;;;5047629;28;20207;-72
2023/09/08 05:55:53;;;;;;;42.30;9.80;;;28.60;55.60;;;;;;5048122;28;20291;-71
2023/09/08 05:58:20;;;;;;;27.73;8.63;;;28.60;55.60;;;;;;5047514;28;20218;-72
2023/09/08 06:00:48;;;;;;;28.40;8.70;;;28.60;55.60;;;;;;5043820;28;20279;-72
2023/09/08 06:03:15;;;;;;;34.20;8.90;;;28.60;55.60;;;;;;5038080;28;20279;-71
2023/09/08 06:05:42;;;;;;;27.90;8.60;;;28.60;55.60;;;;;;5045927;28;20299;-72
2023/09/08 06:08:09;;;;;;;31.80;8.87;;;28.60;55.60;;;;;;5048035;28;20302;-72
2023/09/08 06:10:36;;;;;;;59.93;11.77;;;28.60;55.70;;;;;;5044438;28;20208;-72
2023/09/08 06:13:03;;;;;;;32.23;9.23;;;28.60;55.70;;;;;;5041223;28;20262;-73
2023/09/08 06:15:30;;;;;;;37.67;9.10;;;28.60;55.70;;;;;;5035923;28;20203;-72
2023/09/08 06:17:58;;;;;;;30.53;8.87;;;28.50;55.60;;;;;;5038467;28;20210;-73
2023/09/08 06:20:26;;;;;;;27.07;8.43;;;28.50;55.70;;;;;;5037537;28;20228;-73
2023/09/08 06:22:53;;;;;;;39.97;9.87;;;28.50;55.60;;;;;;5039091;28;20695;-72
2023/09/08 06:25:20;;;;;;;30.47;9.07;;;28.50;55.80;;;;;;5035585;28;20275;-73
2023/09/08 06:27:47;;;;;;;29.93;8.40;;;28.50;55.70;;;;;;5043424;28;20323;-73
2023/09/08 06:30:18;;;;;;;31.00;8.77;;;28.50;55.80;;;;;;5039495;28;20200;-75
2023/09/08 06:32:45;;;;;;;33.47;8.97;;;28.50;55.80;;;;;;5040281;28;20649;-73
2023/09/08 06:35:16;;;;;;;42.80;10.23;;;28.50;55.80;;;;;;5045931;28;20660;-74
2023/09/08 06:37:43;;;;;;;32.23;9.47;;;28.50;55.80;;;;;;5045875;28;20214;-73
2023/09/08 06:40:10;;;;;;;29.50;8.73;;;28.50;55.80;;;;;;5047785;28;20196;-76
2023/09/08 06:42:37;;;;;;;32.77;9.20;;;28.50;55.80;;;;;;5034673;28;20655;-73
2023/09/08 06:45:04;;;;;;;37.10;10.13;;;28.50;55.80;;;;;;5028840;28;20487;-73
2023/09/08 06:47:31;;;;;;;27.13;8.50;;;28.50;56.50;;;;;;5028455;28;20304;-76
2023/09/08 06:49:58;;;;;;;28.30;8.77;;;28.50;56.50;;;;;;5035444;28;20284;-73
2023/09/08 06:52:26;;;;;;;26.13;8.67;;;28.40;55.90;;;;;;5051705;28;20206;-74
2023/09/08 06:54:53;;;;;;;29.00;8.77;;;28.50;55.90;;;;;;5051333;28;20206;-75
2023/09/08 06:57:20;;;;;;;29.90;9.07;;;28.50;55.90;;;;;;5052154;28;20300;-77
2023/09/08 06:59:47;;;;;;;30.03;8.87;;;28.50;56.00;;;;;;5051521;28;20196;-77
2023/09/08 07:02:14;;;;;;;33.10;9.33;;;28.50;56.00;;;;;;5041965;28;20197;-74
2023/09/08 07:04:41;;;;;;;29.07;9.43;;;28.50;56.00;;;;;;5036354;28;20200;-74
2023/09/08 07:07:10;;;;;;;30.13;9.03;;;28.50;56.00;;;;;;5050241;28;20224;-73
2023/09/08 07:09:38;;;;;;;28.13;9.30;;;28.50;56.00;;;;;;5047217;28;20212;-73
2023/09/08 07:12:07;;;;;;;31.63;9.63;;;28.50;56.10;;;;;;5038937;28;20189;-73
2023/09/08 07:14:33;;;;;;;24.60;9.63;;;28.50;56.10;;;;;;5038090;28;20736;-73
2023/09/08 07:17:00;;;;;;;28.97;9.50;;;28.50;56.10;;;;;;5031799;28;20225;-73
2023/09/08 07:19:28;;;;;;;45.50;11.03;;;28.50;56.10;;;;;;5044347;28;20199;-74
2023/09/08 07:21:55;;;;;;;27.67;9.60;;;28.60;56.20;;;;;;5047741;28;20196;-76
2023/09/08 07:24:22;;;;;;;30.00;10.03;;;28.60;56.20;;;;;;5042822;28;20200;-76
2023/09/08 07:26:50;;;;;;;32.97;10.30;;;28.60;56.30;;;;;;5049844;28;20234;-77
2023/09/08 07:29:17;;;;;;;42.10;10.37;;;28.70;56.30;;;;;;5043080;28;20246;-73
2023/09/08 07:31:44;;;;;;;36.00;10.23;;;28.70;56.30;;;;;;5032266;28;20672;-73
2023/09/08 07:34:11;;;;;;;47.70;11.00;;;28.70;56.30;;;;;;5041555;28;20205;-74
2023/09/08 07:36:38;;;;;;;37.17;9.80;;;28.70;56.30;;;;;;5045479;28;20293;-74
2023/09/08 07:39:05;;;;;;;32.33;9.90;;;28.70;56.40;;;;;;5049258;28;20226;-76
2023/09/08 07:41:32;;;;;;;32.10;9.23;;;28.70;56.30;;;;;;5043781;28;20626;-73
2023/09/08 07:44:00;;;;;;;27.63;9.70;;;28.70;56.30;;;;;;5041539;28;20204;-73
2023/09/08 07:46:27;;;;;;;26.63;9.57;;;28.70;56.30;;;;;;5030805;28;20234;-75
2023/09/08 07:48:54;;;;;;;31.37;9.47;;;28.80;56.40;;;;;;5045484;28;20277;-75
2023/09/08 07:51:21;;;;;;;26.83;9.17;;;28.80;56.40;;;;;;5050219;28;20281;-77
2023/09/08 07:53:48;;;;;;;35.50;10.23;;;28.80;56.40;;;;;;5048319;28;20560;-72
2023/09/08 07:56:15;;;;;;;26.80;9.10;;;28.80;56.50;;;;;;5036726;28;20233;-73
2023/09/08 07:58:42;;;;;;;29.20;9.10;;;28.90;56.50;;;;;;5037664;28;20878;-74
2023/09/08 08:01:11;;;;;;;37.10;10.67;;;28.90;56.50;;;;;;5033727;28;20224;-76
2023/09/08 08:03:38;;;;;;;30.43;9.47;;;28.90;56.50;;;;;;5030148;28;20291;-73
2023/09/08 08:06:05;;;;;;;30.77;9.67;;;29.00;56.60;;;;;;5030042;28;20275;-73
2023/09/08 08:08:32;;;;;;;28.77;9.73;;;29.00;56.60;;;;;;5038838;28;20220;-73
2023/09/08 08:11:00;;;;;;;33.13;9.57;;;29.00;56.60;;;;;;5044075;28;20205;-73
2023/09/08 08:13:26;;;;;;;44.63;11.17;;;29.10;56.70;;;;;;5034456;28;20314;-74
2023/09/08 08:15:53;;;;;;;26.00;9.67;;;29.10;56.70;;;;;;5033085;28;20211;-72
2023/09/08 08:18:22;;;;;;;30.07;9.20;;;29.10;56.70;;;;;;5043453;28;20240;-70
2023/09/08 08:20:49;;;;;;;47.43;11.17;;;29.10;56.70;;;;;;5034440;28;20200;-69
2023/09/08 08:23:16;;;;;;;28.40;9.00;;;29.20;56.80;;;;;;5048645;28;20577;-70
2023/09/08 08:25:43;;;;;;;31.80;9.77;;;29.20;56.80;;;;;;5048679;28;20247;-71
2023/09/08 08:28:10;;;;;;;24.87;8.67;;;29.30;56.90;;;;;;5048041;28;20323;-70
2023/09/08 08:30:37;;;;;;;27.33;9.53;;;29.30;56.80;;;;;;5046026;28;20292;-70
2023/09/08 08:33:04;;;;;;;22.60;9.23;;;29.30;56.90;;;;;;5034377;28;20283;-71
2023/09/08 08:35:33;;;;;;;47.87;11.40;;;29.30;56.90;;;;;;5044538;28;20200;-71
2023/09/08 08:38:00;;;;;;;27.80;9.43;;;29.40;57.00;;;;;;5046937;28;20193;-71
2023/09/08 08:40:28;;;;;;;46.47;11.23;;;29.50;57.00;;;;;;5029985;28;20267;-70
2023/09/08 08:42:56;;;;;;;23.67;9.10;;;29.50;57.00;;;;;;5039493;28;20592;-69
2023/09/08 08:45:24;;;;;;;22.50;7.97;;;29.50;57.70;;;;;;5037872;28;20206;-69
2023/09/08 08:47:52;;;;;;;26.23;9.17;;;29.60;57.10;;;;;;5034230;28;20217;-69
2023/09/08 08:50:20;;;;;;;32.80;9.53;;;29.60;57.10;;;;;;5030488;28;20642;-69
2023/09/08 08:52:48;;;;;;;30.47;10.03;;;29.60;57.10;;;;;;5049173;28;20283;-70
2023/09/08 08:55:15;;;;;;;26.27;9.70;;;29.70;57.10;;;;;;5049490;28;20211;-69
2023/09/08 08:57:43;;;;;;;60.77;11.63;;;29.70;57.10;;;;;;5045301;28;20214;-70
2023/09/08 09:00:12;;;;;;;29.50;9.60;;;29.80;57.20;;;;;;5039732;28;20573;-73
2023/09/08 09:02:41;;;;;;;32.17;9.07;;;29.80;57.20;;;;;;5041186;28;20205;-72
2023/09/08 09:05:09;;;;;;;32.47;9.37;;;29.90;57.20;;;;;;5030449;28;20201;-73
2023/09/08 09:07:37;;;;;;;34.33;9.93;;;29.90;57.20;;;;;;5034044;28;20228;-74
2023/09/08 09:10:07;;;;;;;27.00;9.50;;;30.00;57.20;;;;;;5035898;28;20951;-73
2023/09/08 09:12:34;;;;;;;44.70;11.03;;;30.00;57.20;;;;;;5031078;28;20821;-73
2023/09/08 09:15:01;;;;;;;26.30;8.80;;;30.00;57.10;;;;;;5028498;28;20295;-74
2023/09/08 09:17:28;;;;;;;35.43;10.23;;;30.10;57.20;;;;;;5038028;28;20204;-71
2023/09/08 09:20:14;;;;;;;37.50;10.37;;;30.20;57.20;;;;;;5044665;28;20208;-73
2023/09/08 09:22:42;;;;;;;34.00;9.43;;;30.20;57.20;;;;;;5039993;28;20204;-72
2023/09/08 09:25:11;;;;;;;41.57;10.27;;;30.20;57.10;;;;;;5040842;28;20652;-74
2023/09/08 09:27:40;;;;;;;60.73;12.90;;;30.20;57.10;;;;;;5044601;28;20216;-74
2023/09/08 09:30:09;;;;;;;33.13;10.13;;;30.20;57.10;;;;;;5040909;28;20231;-73
2023/09/08 09:32:36;;;;;;;28.10;9.70;;;30.30;57.10;;;;;;5039832;28;20684;-74
2023/09/08 09:35:04;;;;;;;54.30;11.97;;;30.30;57.10;;;;;;5038775;28;20204;-75
2023/09/08 09:37:31;;;;;;;30.60;10.17;;;30.30;57.10;;;;;;5030034;28;20207;-74
2023/09/08 09:40:01;;;;;;;46.13;11.43;;;30.30;57.10;;;;;;5033486;28;20200;-75
2023/09/08 09:42:30;;;;;;;34.72;10.93;;;30.30;57.10;;;;;;5047958;28;20693;-72
2023/09/08 09:44:58;;;;;;;31.50;10.27;;;30.30;57.10;;;;;;5043624;28;20196;-74
2023/09/08 09:47:25;;;;;;;42.67;9.97;;;30.40;57.20;;;;;;5046628;28;20627;-76
2023/09/08 09:49:52;;;;;;;29.63;9.52;;;30.40;57.20;;;;;;5045820;28;20200;-73
2023/09/08 09:52:25;;;;;;;20.87;9.27;;;30.40;57.20;;;;;;5031630;28;20263;-75
2023/09/08 09:54:54;;;;;;;33.30;10.53;;;30.40;57.20;;;;;;5028279;28;20239;-75
2023/09/08 09:57:23;;;;;;;30.83;10.47;;;30.50;57.30;;;;;;5041065;28;20195;-75
2023/09/08 09:59:53;;;;;;;28.53;9.60;;;30.50;57.30;;;;;;5034573;28;20212;-76
2023/09/08 10:02:21;;;;;;;46.23;11.53;;;30.50;57.30;;;;;;5032149;28;20201;-77
2023/09/08 10:04:50;;;;;;;28.70;10.30;;;30.50;57.30;;;;;;5033509;28;20223;-77
2023/09/08 10:07:17;;;;;;;46.83;11.65;;;30.50;57.40;;;;;;5039759;28;20207;-78
2023/09/08 10:09:44;;;;;;;28.70;10.10;;;30.50;57.30;;;;;;5033840;28;20342;-80
2023/09/08 10:12:15;;;;;;;28.03;10.37;;;30.60;57.40;;;;;;5035262;28;20723;-78
2023/09/08 10:14:43;;;;;;;37.93;11.17;;;30.60;57.50;;;;;;5029639;28;20203;-77
2023/09/08 10:17:16;;;;;;;73.53;14.27;;;30.60;57.40;;;;;;5044941;28;20232;-75
2023/09/08 10:19:48;;;;;;;49.03;12.20;;;30.60;58.20;;;;;;5036547;28;20212;-77
2023/09/08 10:22:19;;;;;;;28.07;9.60;;;30.60;57.40;;;;;;5035772;28;20296;-74
2023/09/08 10:24:49;;;;;;;43.90;11.20;;;30.70;57.50;;;;;;5035522;28;20291;-70
2023/09/08 10:27:20;;;;;;;25.87;9.87;;;30.70;57.50;;;;;;5044356;28;20639;-76
2023/09/08 10:29:47;;;;;;;37.83;10.70;;;30.70;57.50;;;;;;5040372;28;20302;-75
2023/09/08 10:32:17;;;;;;;34.77;10.47;;;30.70;57.50;;;;;;5048051;28;20231;-74
2023/09/08 10:34:45;;;;;;;34.03;11.27;;;30.70;57.50;;;;;;5045864;28;20208;-73
2023/09/08 10:37:24;;;;;;;28.67;9.63;;;30.80;57.50;;;;;;5048522;28;20211;-74
2023/09/08 10:39:51;;;;;;;33.07;10.17;;;30.80;57.50;;;;;;5051337;28;20235;-73
2023/09/08 10:42:21;;;;;;;39.53;10.97;;;30.80;57.40;;;;;;5038218;28;20260;-74
2023/09/08 10:45:04;;;;;;;24.37;9.13;;;30.80;57.40;;;;;;5034738;28;20202;-76
2023/09/08 10:47:55;;;;;;;30.77;9.27;;;30.90;57.50;;;;;;5047586;28;20208;-72
2023/09/08 10:50:28;;;;;;;28.50;8.73;;;30.90;57.40;;;;;;5044078;28;20649;-73
2023/09/08 10:53:06;;;;;;;33.20;10.27;;;30.90;57.40;;;;;;5030969;28;20629;-73
2023/09/08 10:55:37;;;;;;;50.17;11.30;;;30.90;57.30;;;;;;5030479;28;20945;-73
2023/09/08 10:58:05;;;;;;;28.13;9.40;;;30.90;57.20;;;;;;5048671;28;20204;-72
2023/09/08 11:00:44;;;;;;;50.67;11.47;;;30.90;57.20;;;;;;5050967;28;20188;-73
2023/09/08 11:03:14;;;;;;;25.42;8.32;;;30.90;57.20;;;;;;5050829;28;20295;-72
2023/09/08 11:05:42;;;;;;;33.70;9.07;;;31.00;57.20;;;;;;5050571;28;20207;-72
2023/09/08 11:08:09;;;;;;;38.97;9.80;;;31.00;57.10;;;;;;5039699;28;20243;-75
2023/09/08 11:10:37;;;;;;;28.23;8.43;;;31.00;57.10;;;;;;5050460;28;20243;-71
2023/09/08 11:13:05;;;;;;;37.75;9.68;;;31.00;57.10;;;;;;5049189;28;20204;-73
2023/09/08 11:15:32;;;;;;;55.45;11.63;;;31.00;57.10;;;;;;5036572;28;20942;-73
2023/09/08 11:18:06;;;;;;;31.13;9.40;;;31.00;57.10;;;;;;5049098;28;20207;-73
2023/09/08 11:20:35;;;;;;;31.30;9.47;;;31.00;57.00;;;;;;5047923;28;20200;-73
2023/09/08 11:23:04;;;;;;;33.70;9.10;;;31.00;57.00;;;;;;5043213;28;20204;-73
2023/09/08 11:25:33;;;;;;;47.30;10.35;;;31.00;57.00;;;;;;5041728;28;20201;-73
2023/09/08 11:28:00;;;;;;;28.80;9.20;;;31.00;57.00;;;;;;5047488;28;20292;-72
2023/09/08 11:30:27;;;;;;;31.10;9.32;;;31.00;56.90;;;;;;5050272;28;20277;-72
2023/09/08 11:32:58;;;;;;;28.73;8.93;;;31.00;56.90;;;;;;5046933;28;20712;-73
2023/09/08 11:35:28;;;;;;;21.20;7.80;;;31.00;56.90;;;;;;5033157;28;20304;-74
2023/09/08 11:38:02;;;;;;;30.25;8.30;;;31.00;56.90;;;;;;5030139;28;20193;-72
2023/09/08 11:40:29;;;;;;;30.85;8.30;;;31.00;56.80;;;;;;5046561;28;20713;-72
2023/09/08 11:42:56;;;;;;;27.92;8.40;;;31.00;56.70;;;;;;5050320;28;20295;-73
2023/09/08 11:45:24;;;;;;;29.10;8.70;;;31.00;56.70;;;;;;5049838;28;20196;-72
2023/09/08 11:47:53;;;;;;;29.52;8.95;;;31.00;56.70;;;;;;5040147;28;20224;-72
2023/09/08 11:50:20;;;;;;;29.25;8.32;;;31.00;56.70;;;;;;5046442;28;20204;-73
2023/09/08 11:52:49;;;;;;;28.88;8.43;;;31.00;56.70;;;;;;5049786;28;20204;-72
2023/09/08 11:55:18;;;;;;;21.95;8.18;;;31.00;56.70;;;;;;5048465;28;20228;-73
2023/09/08 11:57:48;;;;;;;36.93;9.23;;;31.00;56.70;;;;;;5046503;28;20286;-73
2023/09/08 12:00:17;;;;;;;39.30;9.63;;;31.00;56.70;;;;;;5041078;28;20210;-78
2023/09/08 12:02:45;;;;;;;27.33;8.38;;;31.00;56.60;;;;;;5037277;28;20204;-73
2023/09/08 12:05:22;;;;;;;39.45;9.80;;;31.00;56.60;;;;;;5047397;28;20649;-72
2023/09/08 12:07:49;;;;;;;27.52;9.13;;;31.00;56.60;;;;;;5030665;28;20201;-73
2023/09/08 12:10:18;;;;;;;24.80;7.55;;;31.00;56.70;;;;;;5035823;28;20228;-72
2023/09/08 12:12:46;;;;;;;57.88;11.77;;;31.00;56.70;;;;;;5046794;28;20200;-71
2023/09/08 12:15:28;;;;;;;36.92;9.52;;;31.00;56.60;;;;;;5047306;28;20244;-72
2023/09/08 12:17:55;;;;;;;23.77;8.18;;;31.00;56.70;;;;;;5049811;28;20188;-72
2023/09/08 12:20:22;;;;;;;28.48;8.07;;;31.00;57.40;;;;;;5049453;28;20235;-75
2023/09/08 12:22:50;;;;;;;24.90;8.30;;;31.00;56.70;;;;;;5046678;28;20196;-72
2023/09/08 12:25:19;;;;;;;29.77;9.00;;;31.00;56.70;;;;;;5048090;28;20192;-74
2023/09/08 12:27:47;;;;;;;24.17;7.90;;;31.00;56.70;;;;;;5049309;28;20283;-74
2023/09/08 12:30:19;;;;;;;30.87;8.27;;;31.00;56.80;;;;;;5049461;28;20232;-76
2023/09/08 12:32:48;;;;;;;23.93;7.90;;;31.00;56.80;;;;;;5049616;28;20207;-76
2023/09/08 12:35:22;;;;;;;27.93;8.03;;;31.00;56.80;;;;;;5049304;28;20196;-76
2023/09/08 12:37:52;;;;;;;28.13;8.23;;;31.00;56.80;;;;;;5049361;28;20208;-77
2023/09/08 12:40:21;;;;;;;27.05;8.18;;;31.10;56.80;;;;;;5048366;28;20656;-77